sensor_id;sensor_type;location;lat;lon;timestamp;pressure;altitude;pressure_sealevel;temperature;humidity
68230;BME280;55048;52.220;5.160;2022-10-16T00:00:41;100786.13;;;14.38;76.25
68230;BME280;55048;52.220;5.160;2022-10-16T00:03:07;100779.97;;;14.37;75.85
68230;BME280;55048;52.220;5.160;2022-10-16T00:05:38;100791.53;;;14.48;75.83
68230;BME280;55048;52.220;5.160;2022-10-16T00:08:04;100781.84;;;14.42;75.71
68230;BME280;55048;52.220;5.160;2022-10-16T00:10:29;100790.44;;;14.49;75.50
68230;BME280;55048;52.220;5.160;2022-10-16T00:12:54;100792.31;;;14.48;75.29
68230;BME280;55048;52.220;5.160;2022-10-16T00:15:20;100807.88;;;14.62;74.96
68230;BME280;55048;52.220;5.160;2022-10-16T00:17:45;100792.06;;;14.50;75.28
68230;BME280;55048;52.220;5.160;2022-10-16T00:20:11;100786.94;;;14.43;74.86
68230;BME280;55048;52.220;5.160;2022-10-16T00:22:36;100782.66;;;14.47;74.64
68230;BME280;55048;52.220;5.160;2022-10-16T00:25:02;100796.91;;;14.58;74.20
68230;BME280;55048;52.220;5.160;2022-10-16T00:27:28;100793.41;;;14.58;74.43
68230;BME280;55048;52.220;5.160;2022-10-16T00:29:53;100748.38;;;14.34;74.20
68230;BME280;55048;52.220;5.160;2022-10-16T00:32:19;100796.66;;;14.65;74.40
68230;BME280;55048;52.220;5.160;2022-10-16T00:34:45;100790.22;;;14.61;74.42
68230;BME280;55048;52.220;5.160;2022-10-16T00:37:11;100769.59;;;14.51;74.18
68230;BME280;55048;52.220;5.160;2022-10-16T00:39:36;100796.38;;;14.61;74.23
68230;BME280;55048;52.220;5.160;2022-10-16T00:42:02;100796.91;;;14.63;74.01
68230;BME280;55048;52.220;5.160;2022-10-16T00:47:21;100785.69;;;14.66;73.93
68230;BME280;55048;52.220;5.160;2022-10-16T00:49:50;100804.44;;;14.66;73.75
68230;BME280;55048;52.220;5.160;2022-10-16T00:52:16;100792.09;;;14.60;73.79
68230;BME280;55048;52.220;5.160;2022-10-16T00:54:46;100805.78;;;14.69;74.06
68230;BME280;55048;52.220;5.160;2022-10-16T00:57:12;100805.78;;;14.69;73.81
68230;BME280;55048;52.220;5.160;2022-10-16T00:59:39;100798.28;;;14.66;74.00
68230;BME280;55048;52.220;5.160;2022-10-16T01:02:08;100791.81;;;14.57;74.47
68230;BME280;55048;52.220;5.160;2022-10-16T01:04:40;100800.94;;;14.56;74.52
68230;BME280;55048;52.220;5.160;2022-10-16T01:07:16;100792.09;;;14.60;74.35
68230;BME280;55048;52.220;5.160;2022-10-16T01:10:14;100795.31;;;14.67;74.43
68230;BME280;55048;52.220;5.160;2022-10-16T01:12:53;100767.44;;;14.48;74.30
68230;BME280;55048;52.220;5.160;2022-10-16T01:15:37;100780.06;;;14.63;74.52
68230;BME280;55048;52.220;5.160;2022-10-16T01:29:01;100786.78;;;14.70;74.98
68230;BME280;55048;52.220;5.160;2022-10-16T01:31:31;100780.59;;;14.60;75.12
68230;BME280;55048;52.220;5.160;2022-10-16T01:34:10;100782.22;;;14.66;75.37
68230;BME280;55048;52.220;5.160;2022-10-16T01:36:41;100743.63;;;14.51;75.49
68230;BME280;55048;52.220;5.160;2022-10-16T01:39:11;100790.75;;;14.68;75.88
68230;BME280;55048;52.220;5.160;2022-10-16T01:41:41;100791.03;;;14.66;75.74
68230;BME280;55048;52.220;5.160;2022-10-16T01:44:21;100773.09;;;14.57;76.21
68230;BME280;55048;52.220;5.160;2022-10-16T01:46:51;100775.53;;;14.78;75.54
68230;BME280;55048;52.220;5.160;2022-10-16T01:49:20;100787.28;;;14.72;76.03
68230;BME280;55048;52.220;5.160;2022-10-16T01:51:49;100791.06;;;14.76;76.40
68230;BME280;55048;52.220;5.160;2022-10-16T01:54:18;100797.19;;;14.72;76.78
68230;BME280;55048;52.220;5.160;2022-10-16T01:56:45;100786.22;;;14.68;76.29
68230;BME280;55048;52.220;5.160;2022-10-16T01:59:17;100805.50;;;14.75;76.62
68230;BME280;55048;52.220;5.160;2022-10-16T02:01:48;100798.56;;;14.74;76.73
68230;BME280;55048;52.220;5.160;2022-10-16T02:04:28;100801.75;;;14.76;77.11
68230;BME280;55048;52.220;5.160;2022-10-16T02:06:55;100785.69;;;14.66;76.92
68230;BME280;55048;52.220;5.160;2022-10-16T02:09:21;100782.44;;;14.54;77.27
68230;BME280;55048;52.220;5.160;2022-10-16T02:11:46;100797.19;;;14.67;77.38
68230;BME280;55048;52.220;5.160;2022-10-16T02:14:14;100808.19;;;14.70;77.38
68230;BME280;55048;52.220;5.160;2022-10-16T02:16:46;100796.03;;;14.47;77.82
68230;BME280;55048;52.220;5.160;2022-10-16T02:19:17;100801.72;;;14.51;77.79
68230;BME280;55048;52.220;5.160;2022-10-16T02:22:00;100816.69;;;14.52;77.99
68230;BME280;55048;52.220;5.160;2022-10-16T02:24:43;100825.00;;;14.56;78.10
68230;BME280;55048;52.220;5.160;2022-10-16T02:30:13;100829.50;;;14.50;78.16
68230;BME280;55048;52.220;5.160;2022-10-16T02:32:42;100809.91;;;14.34;78.12
68230;BME280;55048;52.220;5.160;2022-10-16T02:35:10;100789.81;;;14.26;78.01
68230;BME280;55048;52.220;5.160;2022-10-16T02:37:36;100809.63;;;14.30;78.12
68230;BME280;55048;52.220;5.160;2022-10-16T02:40:04;100831.31;;;14.39;78.49
68230;BME280;55048;52.220;5.160;2022-10-16T02:42:35;100831.88;;;14.36;78.52
68230;BME280;55048;52.220;5.160;2022-10-16T02:45:00;100806.09;;;14.20;78.52
68230;BME280;55048;52.220;5.160;2022-10-16T02:47:26;100839.09;;;14.41;78.57
68230;BME280;55048;52.220;5.160;2022-10-16T02:49:51;100815.78;;;14.31;78.71
68230;BME280;55048;52.220;5.160;2022-10-16T02:52:17;100837.25;;;14.46;78.56
68230;BME280;55048;52.220;5.160;2022-10-16T02:54:42;100842.38;;;14.48;78.76
68230;BME280;55048;52.220;5.160;2022-10-16T02:57:07;100810.19;;;14.33;78.87
68230;BME280;55048;52.220;5.160;2022-10-16T02:59:33;100824.09;;;14.40;78.72
68230;BME280;55048;52.220;5.160;2022-10-16T03:01:58;100794.91;;;14.23;78.67
68230;BME280;55048;52.220;5.160;2022-10-16T03:04:23;100812.84;;;14.33;78.65
68230;BME280;55048;52.220;5.160;2022-10-16T03:06:49;100800.78;;;14.25;78.97
68230;BME280;55048;52.220;5.160;2022-10-16T03:09:14;100763.78;;;14.07;78.78
68230;BME280;55048;52.220;5.160;2022-10-16T03:11:40;100805.84;;;14.26;78.75
68230;BME280;55048;52.220;5.160;2022-10-16T03:14:05;100811.00;;;14.38;78.96
68230;BME280;55048;52.220;5.160;2022-10-16T03:16:31;100802.34;;;14.21;79.77
68230;BME280;55048;52.220;5.160;2022-10-16T03:18:56;100816.31;;;14.28;79.42
68230;BME280;55048;52.220;5.160;2022-10-16T03:21:22;100823.28;;;14.34;79.32
68230;BME280;55048;52.220;5.160;2022-10-16T03:23:47;100817.13;;;14.28;79.38
68230;BME280;55048;52.220;5.160;2022-10-16T03:26:12;100817.34;;;14.22;79.32
68230;BME280;55048;52.220;5.160;2022-10-16T03:28:38;100827.25;;;14.26;79.35
68230;BME280;55048;52.220;5.160;2022-10-16T03:31:03;100840.94;;;14.35;79.48
68230;BME280;55048;52.220;5.160;2022-10-16T03:33:28;100809.84;;;14.14;79.31
68230;BME280;55048;52.220;5.160;2022-10-16T03:35:54;100852.19;;;14.32;79.74
68230;BME280;55048;52.220;5.160;2022-10-16T03:38:20;100829.88;;;14.11;79.38
68230;BME280;55048;52.220;5.160;2022-10-16T03:40:46;100859.94;;;14.34;79.70
68230;BME280;55048;52.220;5.160;2022-10-16T03:43:12;100853.97;;;14.16;80.23
68230;BME280;55048;52.220;5.160;2022-10-16T03:45:37;100852.09;;;14.17;80.13
68230;BME280;55048;52.220;5.160;2022-10-16T03:48:03;100854.00;;;14.26;80.20
68230;BME280;55048;52.220;5.160;2022-10-16T03:50:29;100850.78;;;14.19;80.03
68230;BME280;55048;52.220;5.160;2022-10-16T03:52:54;100843.22;;;14.11;80.05
68230;BME280;55048;52.220;5.160;2022-10-16T03:55:19;100855.38;;;14.29;80.20
68230;BME280;55048;52.220;5.160;2022-10-16T03:57:45;100846.75;;;14.22;80.27
68230;BME280;55048;52.220;5.160;2022-10-16T04:00:11;100862.88;;;14.27;80.27
68230;BME280;55048;52.220;5.160;2022-10-16T04:02:39;100870.06;;;14.26;80.65
68230;BME280;55048;52.220;5.160;2022-10-16T04:05:05;100874.91;;;14.29;80.49
68230;BME280;55048;52.220;5.160;2022-10-16T04:07:31;100845.41;;;14.14;80.39
68230;BME280;55048;52.220;5.160;2022-10-16T04:09:56;100802.16;;;13.80;80.38
68230;BME280;55048;52.220;5.160;2022-10-16T04:12:24;100862.81;;;14.22;80.50
68230;BME280;55048;52.220;5.160;2022-10-16T04:14:49;100862.81;;;14.22;80.65
68230;BME280;55048;52.220;5.160;2022-10-16T04:17:15;100877.03;;;14.27;80.54
68230;BME280;55048;52.220;5.160;2022-10-16T04:19:41;100877.84;;;14.28;81.27
68230;BME280;55048;52.220;5.160;2022-10-16T04:22:06;100847.50;;;14.07;80.63
68230;BME280;55048;52.220;5.160;2022-10-16T04:24:32;100883.69;;;14.25;80.61
68230;BME280;55048;52.220;5.160;2022-10-16T04:26:57;100898.69;;;14.31;81.00
68230;BME280;55048;52.220;5.160;2022-10-16T04:29:22;100906.72;;;14.31;80.54
68230;BME280;55048;52.220;5.160;2022-10-16T04:31:48;100844.72;;;13.92;80.68
68230;BME280;55048;52.220;5.160;2022-10-16T04:34:13;100909.97;;;14.33;80.78
68230;BME280;55048;52.220;5.160;2022-10-16T04:36:38;100896.28;;;14.24;80.58
68230;BME280;55048;52.220;5.160;2022-10-16T04:39:04;100898.34;;;14.17;80.81
68230;BME280;55048;52.220;5.160;2022-10-16T04:41:29;100893.53;;;14.14;80.53
68230;BME280;55048;52.220;5.160;2022-10-16T04:43:54;100907.47;;;14.21;80.86
68230;BME280;55048;52.220;5.160;2022-10-16T04:46:20;100911.81;;;14.27;80.65
68230;BME280;55048;52.220;5.160;2022-10-16T04:48:45;100932.69;;;14.30;80.80
68230;BME280;55048;52.220;5.160;2022-10-16T04:51:12;100906.34;;;14.12;80.62
68230;BME280;55048;52.220;5.160;2022-10-16T04:53:37;100913.38;;;14.18;80.91
68230;BME280;55048;52.220;5.160;2022-10-16T04:56:02;100916.28;;;14.17;81.04
68230;BME280;55048;52.220;5.160;2022-10-16T04:58:28;100913.28;;;14.08;81.25
68230;BME280;55048;52.220;5.160;2022-10-16T05:00:53;100930.19;;;14.14;81.08
68230;BME280;55048;52.220;5.160;2022-10-16T05:03:19;100952.94;;;14.21;81.34
68230;BME280;55048;52.220;5.160;2022-10-16T05:05:45;100935.25;;;14.15;81.38
68230;BME280;55048;52.220;5.160;2022-10-16T05:08:14;100943.03;;;14.17;81.48
68230;BME280;55048;52.220;5.160;2022-10-16T05:10:41;100927.44;;;14.03;81.11
68230;BME280;55048;52.220;5.160;2022-10-16T05:13:07;100940.31;;;14.12;81.14
68230;BME280;55048;52.220;5.160;2022-10-16T05:15:33;100960.44;;;14.19;81.61
68230;BME280;55048;52.220;5.160;2022-10-16T05:17:58;100973.00;;;14.19;81.78
68230;BME280;55048;52.220;5.160;2022-10-16T05:20:23;100959.56;;;14.09;81.52
68230;BME280;55048;52.220;5.160;2022-10-16T05:22:49;100950.97;;;14.07;81.84
68230;BME280;55048;52.220;5.160;2022-10-16T05:25:14;100966.25;;;14.11;81.74
68230;BME280;55048;52.220;5.160;2022-10-16T05:27:40;100975.00;;;14.01;82.03
68230;BME280;55048;52.220;5.160;2022-10-16T05:30:06;100977.75;;;14.12;81.66
68230;BME280;55048;52.220;5.160;2022-10-16T05:32:31;100980.72;;;14.15;81.49
68230;BME280;55048;52.220;5.160;2022-10-16T05:34:57;100983.94;;;14.17;81.67
68230;BME280;55048;52.220;5.160;2022-10-16T05:37:27;100991.47;;;14.20;81.43
68230;BME280;55048;52.220;5.160;2022-10-16T05:39:52;100986.09;;;14.15;81.70
68230;BME280;55048;52.220;5.160;2022-10-16T05:42:17;100998.91;;;14.13;81.91
68230;BME280;55048;52.220;5.160;2022-10-16T05:44:43;101010.69;;;14.17;81.95
68230;BME280;55048;52.220;5.160;2022-10-16T05:47:08;100980.63;;;14.00;82.13
68230;BME280;55048;52.220;5.160;2022-10-16T05:49:35;100987.91;;;14.10;82.08
68230;BME280;55048;52.220;5.160;2022-10-16T05:52:01;100993.72;;;14.01;82.34
68230;BME280;55048;52.220;5.160;2022-10-16T05:54:27;101017.06;;;14.11;82.28
68230;BME280;55048;52.220;5.160;2022-10-16T05:56:52;101010.88;;;14.06;82.37
68230;BME280;55048;52.220;5.160;2022-10-16T05:59:20;101023.75;;;14.09;83.30
68230;BME280;55048;52.220;5.160;2022-10-16T06:01:46;101033.91;;;14.12;83.51
68230;BME280;55048;52.220;5.160;2022-10-16T06:04:11;101050.00;;;14.17;83.33
68230;BME280;55048;52.220;5.160;2022-10-16T06:06:36;101022.34;;;14.01;83.86
68230;BME280;55048;52.220;5.160;2022-10-16T06:09:03;101058.56;;;14.14;83.60
68230;BME280;55048;52.220;5.160;2022-10-16T06:11:31;101052.41;;;14.13;84.70
68230;BME280;55048;52.220;5.160;2022-10-16T06:13:59;101022.56;;;13.94;84.48
68230;BME280;55048;52.220;5.160;2022-10-16T06:16:32;101041.38;;;14.04;84.11
68230;BME280;55048;52.220;5.160;2022-10-16T06:18:58;101058.28;;;14.15;84.15
68230;BME280;55048;52.220;5.160;2022-10-16T06:21:26;101024.78;;;14.08;84.47
68230;BME280;55048;52.220;5.160;2022-10-16T06:23:53;101053.75;;;14.16;84.43
68230;BME280;55048;52.220;5.160;2022-10-16T06:26:22;101040.94;;;14.18;84.62
68230;BME280;55048;52.220;5.160;2022-10-16T06:28:48;101030.13;;;14.08;84.94
68230;BME280;55048;52.220;5.160;2022-10-16T06:31:14;101029.56;;;14.00;85.13
68230;BME280;55048;52.220;5.160;2022-10-16T06:33:40;101042.97;;;14.06;85.28
68230;BME280;55048;52.220;5.160;2022-10-16T06:36:11;101056.34;;;14.06;85.37
68230;BME280;55048;52.220;5.160;2022-10-16T06:38:38;101048.81;;;14.02;85.12
68230;BME280;55048;52.220;5.160;2022-10-16T06:41:04;101003.94;;;13.77;85.85
68230;BME280;55048;52.220;5.160;2022-10-16T06:43:30;101061.19;;;14.09;85.38
68230;BME280;55048;52.220;5.160;2022-10-16T06:46:01;101060.63;;;14.07;85.82
68230;BME280;55048;52.220;5.160;2022-10-16T06:48:27;101064.91;;;14.08;85.65
68230;BME280;55048;52.220;5.160;2022-10-16T06:51:01;101070.25;;;14.08;85.21
68230;BME280;55048;52.220;5.160;2022-10-16T06:53:29;101070.03;;;14.09;85.64
68230;BME280;55048;52.220;5.160;2022-10-16T06:55:55;101056.78;;;13.97;85.93
68230;BME280;55048;52.220;5.160;2022-10-16T06:58:20;101040.94;;;13.86;86.04
68230;BME280;55048;52.220;5.160;2022-10-16T07:00:46;101076.16;;;14.10;85.71
68230;BME280;55048;52.220;5.160;2022-10-16T07:03:12;101074.22;;;14.00;85.83
68230;BME280;55048;52.220;5.160;2022-10-16T07:05:39;101081.25;;;14.11;85.56
68230;BME280;55048;52.220;5.160;2022-10-16T07:08:04;101052.72;;;13.90;85.38
68230;BME280;55048;52.220;5.160;2022-10-16T07:10:31;101107.50;;;14.14;85.62
68230;BME280;55048;52.220;5.160;2022-10-16T07:12:57;101108.28;;;14.10;85.88
68230;BME280;55048;52.220;5.160;2022-10-16T07:15:22;101111.78;;;14.15;85.63
68230;BME280;55048;52.220;5.160;2022-10-16T07:17:48;101097.81;;;14.08;85.12
68230;BME280;55048;52.220;5.160;2022-10-16T07:20:13;101075.28;;;13.99;85.17
68230;BME280;55048;52.220;5.160;2022-10-16T07:22:38;101119.41;;;14.28;85.03
68230;BME280;55048;52.220;5.160;2022-10-16T07:25:04;101060.19;;;13.88;84.75
68230;BME280;55048;52.220;5.160;2022-10-16T07:27:30;101104.25;;;14.12;85.03
68230;BME280;55048;52.220;5.160;2022-10-16T07:29:55;101085.84;;;13.89;84.65
68230;BME280;55048;52.220;5.160;2022-10-16T07:32:20;101140.56;;;14.30;84.39
68230;BME280;55048;52.220;5.160;2022-10-16T07:34:46;101145.41;;;14.33;84.39
68230;BME280;55048;52.220;5.160;2022-10-16T07:37:11;101148.56;;;14.30;84.01
68230;BME280;55048;52.220;5.160;2022-10-16T07:39:36;101133.22;;;14.20;83.91
68230;BME280;55048;52.220;5.160;2022-10-16T07:42:02;101164.13;;;14.33;84.19
68230;BME280;55048;52.220;5.160;2022-10-16T07:44:27;101170.03;;;14.35;83.73
68230;BME280;55048;52.220;5.160;2022-10-16T07:46:53;101164.94;;;14.34;83.37
68230;BME280;55048;52.220;5.160;2022-10-16T07:49:18;101173.47;;;14.30;83.79
68230;BME280;55048;52.220;5.160;2022-10-16T07:51:44;101149.25;;;14.15;83.29
68230;BME280;55048;52.220;5.160;2022-10-16T07:54:09;101181.16;;;14.49;83.07
68230;BME280;55048;52.220;5.160;2022-10-16T07:56:35;101165.78;;;14.39;83.90
68230;BME280;55048;52.220;5.160;2022-10-16T07:59:00;101162.63;;;14.42;83.23
68230;BME280;55048;52.220;5.160;2022-10-16T08:01:26;101191.19;;;14.64;83.02
68230;BME280;55048;52.220;5.160;2022-10-16T08:03:51;101194.13;;;14.62;83.25
68230;BME280;55048;52.220;5.160;2022-10-16T08:06:19;101199.88;;;14.49;83.78
68230;BME280;55048;52.220;5.160;2022-10-16T08:08:45;101181.81;;;14.61;83.04
68230;BME280;55048;52.220;5.160;2022-10-16T08:11:10;101212.25;;;14.87;83.12
68230;BME280;55048;52.220;5.160;2022-10-16T08:13:36;101213.59;;;14.85;82.69
68230;BME280;55048;52.220;5.160;2022-10-16T08:16:02;101202.84;;;14.79;82.89
68230;BME280;55048;52.220;5.160;2022-10-16T08:18:33;101215.47;;;14.84;83.25
68230;BME280;55048;52.220;5.160;2022-10-16T08:20:59;101213.03;;;14.83;83.45
68230;BME280;55048;52.220;5.160;2022-10-16T08:23:26;101239.19;;;15.02;83.13
68230;BME280;55048;52.220;5.160;2022-10-16T08:25:52;101239.72;;;15.04;82.90
68230;BME280;55048;52.220;5.160;2022-10-16T08:28:19;101237.06;;;15.04;82.88
68230;BME280;55048;52.220;5.160;2022-10-16T08:30:44;101223.94;;;15.03;83.12
68230;BME280;55048;52.220;5.160;2022-10-16T08:33:10;101248.75;;;15.25;82.96
68230;BME280;55048;52.220;5.160;2022-10-16T08:35:36;101237.75;;;15.27;82.68
68230;BME280;55048;52.220;5.160;2022-10-16T08:38:06;101221.69;;;15.27;81.96
68230;BME280;55048;52.220;5.160;2022-10-16T08:40:32;101251.81;;;15.44;82.44
68230;BME280;55048;52.220;5.160;2022-10-16T08:48:22;101264.66;;;15.42;81.82
68230;BME280;55048;52.220;5.160;2022-10-16T08:50:50;101251.50;;;15.41;81.88
68230;BME280;55048;52.220;5.160;2022-10-16T08:53:26;101268.16;;;15.48;81.73
68230;BME280;55048;52.220;5.160;2022-10-16T08:55:53;101276.84;;;15.60;81.35
68230;BME280;55048;52.220;5.160;2022-10-16T08:58:29;101274.72;;;15.62;81.15
68230;BME280;55048;52.220;5.160;2022-10-16T09:01:03;101239.75;;;15.47;81.04
68230;BME280;55048;52.220;5.160;2022-10-16T09:09:04;101280.97;;;15.73;80.59
68230;BME280;55048;52.220;5.160;2022-10-16T09:12:52;101272.91;;;15.68;80.62
68230;BME280;55048;52.220;5.160;2022-10-16T09:17:52;101322.31;;;15.82;80.77
68230;BME280;55048;52.220;5.160;2022-10-16T09:23:26;101330.94;;;15.94;80.55
68230;BME280;55048;52.220;5.160;2022-10-16T09:25:53;101335.31;;;16.00;80.40
68230;BME280;55048;52.220;5.160;2022-10-16T09:28:19;101257.16;;;15.39;79.64
68230;BME280;55048;52.220;5.160;2022-10-16T09:30:45;101266.16;;;15.65;79.76
68230;BME280;55048;52.220;5.160;2022-10-16T09:33:12;101337.19;;;16.05;79.62
68230;BME280;55048;52.220;5.160;2022-10-16T09:35:41;101283.94;;;15.76;79.34
68230;BME280;55048;52.220;5.160;2022-10-16T09:38:08;101312.50;;;16.08;79.01
68230;BME280;55048;52.220;5.160;2022-10-16T09:40:38;101336.75;;;16.23;78.69
68230;BME280;55048;52.220;5.160;2022-10-16T09:43:21;101337.81;;;16.22;78.59
68230;BME280;55048;52.220;5.160;2022-10-16T09:46:00;101345.63;;;16.24;78.04
68230;BME280;55048;52.220;5.160;2022-10-16T09:51:03;101340.00;;;16.36;77.86
68230;BME280;55048;52.220;5.160;2022-10-16T09:53:39;101332.50;;;16.32;77.02
68230;BME280;55048;52.220;5.160;2022-10-16T09:56:05;101328.47;;;16.40;76.81
68230;BME280;55048;52.220;5.160;2022-10-16T09:58:31;101351.38;;;16.63;76.15
68230;BME280;55048;52.220;5.160;2022-10-16T10:00:59;101316.13;;;16.39;76.00
68230;BME280;55048;52.220;5.160;2022-10-16T10:03:36;101333.63;;;16.52;75.84
68230;BME280;55048;52.220;5.160;2022-10-16T10:09:22;101317.78;;;16.50;75.35
68230;BME280;55048;52.220;5.160;2022-10-16T10:12:23;101281.19;;;16.24;74.99
68230;BME280;55048;52.220;5.160;2022-10-16T10:15:14;101270.38;;;16.03;75.08
68230;BME280;55048;52.220;5.160;2022-10-16T10:17:57;101204.44;;;15.60;75.01
68230;BME280;55048;52.220;5.160;2022-10-16T10:20:29;100954.81;;;14.21;74.94
68230;BME280;55048;52.220;5.160;2022-10-16T10:23:13;101101.19;;;14.95;74.80
68230;BME280;55048;52.220;5.160;2022-10-16T10:34:19;101392.31;;;16.80;75.44
68230;BME280;55048;52.220;5.160;2022-10-16T10:40:38;101299.28;;;16.59;74.88
68230;BME280;55048;52.220;5.160;2022-10-16T10:43:08;101391.06;;;17.49;74.69
68230;BME280;55048;52.220;5.160;2022-10-16T10:45:42;101348.31;;;17.07;73.59
68230;BME280;55048;52.220;5.160;2022-10-16T10:51:01;101408.25;;;17.33;73.30
68230;BME280;55048;52.220;5.160;2022-10-16T10:56:41;101403.69;;;17.33;72.58
68230;BME280;55048;52.220;5.160;2022-10-16T11:02:00;101369.53;;;17.08;72.60
68230;BME280;55048;52.220;5.160;2022-10-16T11:04:52;101414.69;;;17.22;72.70
68230;BME280;55048;52.220;5.160;2022-10-16T11:07:32;101378.34;;;16.83;71.66
68230;BME280;55048;52.220;5.160;2022-10-16T11:10:14;101380.94;;;16.68;71.91
68230;BME280;55048;52.220;5.160;2022-10-16T11:12:44;101356.94;;;16.41;71.40
68230;BME280;55048;52.220;5.160;2022-10-16T11:15:23;101424.34;;;17.02;71.95
68230;BME280;55048;52.220;5.160;2022-10-16T11:17:55;101404.75;;;17.07;71.44
68230;BME280;55048;52.220;5.160;2022-10-16T11:20:25;101407.97;;;17.24;70.23
68230;BME280;55048;52.220;5.160;2022-10-16T11:22:57;101415.78;;;17.36;69.10
68230;BME280;55048;52.220;5.160;2022-10-16T11:30:28;101434.94;;;17.96;67.61
68230;BME280;55048;52.220;5.160;2022-10-16T11:33:02;101418.78;;;17.91;67.43
68230;BME280;55048;52.220;5.160;2022-10-16T11:35:46;101375.44;;;17.67;66.58
68230;BME280;55048;52.220;5.160;2022-10-16T11:41:19;101401.00;;;18.05;65.60
68230;BME280;55048;52.220;5.160;2022-10-16T11:44:09;101449.41;;;18.25;64.77
68230;BME280;55048;52.220;5.160;2022-10-16T11:46:49;101412.31;;;17.92;62.45
68230;BME280;55048;52.220;5.160;2022-10-16T11:49:21;101444.03;;;18.20;62.57
68230;BME280;55048;52.220;5.160;2022-10-16T11:53:00;101378.94;;;17.62;61.83
68230;BME280;55048;52.220;5.160;2022-10-16T11:55:00;101377.09;;;17.63;62.73
68230;BME280;55048;52.220;5.160;2022-10-16T11:57:39;101423.09;;;17.81;62.83
68230;BME280;55048;52.220;5.160;2022-10-16T12:00:08;101449.19;;;18.01;62.94
68230;BME280;55048;52.220;5.160;2022-10-16T12:05:52;101461.81;;;17.80;61.10
68230;BME280;55048;52.220;5.160;2022-10-16T12:08:20;101369.53;;;17.24;61.97
68230;BME280;55048;52.220;5.160;2022-10-16T12:10:47;101416.31;;;17.48;61.88
68230;BME280;55048;52.220;5.160;2022-10-16T12:13:33;101466.69;;;17.83;60.91
68230;BME280;55048;52.220;5.160;2022-10-16T12:18:36;101453.50;;;17.87;60.77
68230;BME280;55048;52.220;5.160;2022-10-16T12:21:02;101447.56;;;17.90;60.39
68230;BME280;55048;52.220;5.160;2022-10-16T12:23:36;101472.03;;;17.99;59.71
68230;BME280;55048;52.220;5.160;2022-10-16T12:26:02;101417.16;;;17.74;59.67
68230;BME280;55048;52.220;5.160;2022-10-16T12:28:34;101419.03;;;17.84;58.77
68230;BME280;55048;52.220;5.160;2022-10-16T12:31:05;101420.13;;;17.88;58.78
68230;BME280;55048;52.220;5.160;2022-10-16T12:33:33;101412.59;;;17.85;59.20
68230;BME280;55048;52.220;5.160;2022-10-16T12:36:03;101431.44;;;17.95;60.64
68230;BME280;55048;52.220;5.160;2022-10-16T12:38:37;101472.84;;;18.25;61.14
68230;BME280;55048;52.220;5.160;2022-10-16T12:41:06;101444.28;;;18.14;59.99
68230;BME280;55048;52.220;5.160;2022-10-16T12:48:34;101437.06;;;17.99;60.25
68230;BME280;55048;52.220;5.160;2022-10-16T12:54:18;101490.88;;;18.14;61.24
68230;BME280;55048;52.220;5.160;2022-10-16T13:05:26;101487.94;;;17.95;61.73
68230;BME280;55048;52.220;5.160;2022-10-16T13:14:36;101488.47;;;17.77;61.86
68230;BME280;55048;52.220;5.160;2022-10-16T13:24:46;101458.31;;;17.65;60.65
68230;BME280;55048;52.220;5.160;2022-10-16T13:29:52;101449.16;;;17.66;61.09
68230;BME280;55048;52.220;5.160;2022-10-16T13:32:19;101474.22;;;17.81;61.34
68230;BME280;55048;52.220;5.160;2022-10-16T13:34:46;101522.09;;;17.95;61.64
68230;BME280;55048;52.220;5.160;2022-10-16T13:37:21;101521.56;;;17.88;61.77
68230;BME280;55048;52.220;5.160;2022-10-16T13:39:47;101503.25;;;17.90;61.88
68230;BME280;55048;52.220;5.160;2022-10-16T13:42:27;101340.47;;;16.80;61.03
68230;BME280;55048;52.220;5.160;2022-10-16T13:44:55;101496.28;;;17.78;61.14
68230;BME280;55048;52.220;5.160;2022-10-16T13:47:21;101523.19;;;17.99;60.64
68230;BME280;55048;52.220;5.160;2022-10-16T13:50:02;101526.66;;;17.99;60.38
68230;BME280;55048;52.220;5.160;2022-10-16T13:52:28;101445.94;;;17.53;61.21
68230;BME280;55048;52.220;5.160;2022-10-16T13:54:54;101522.66;;;17.97;61.32
68230;BME280;55048;52.220;5.160;2022-10-16T13:57:23;101505.16;;;17.89;61.21
68230;BME280;55048;52.220;5.160;2022-10-16T13:59:48;101520.47;;;18.09;61.17
68230;BME280;55048;52.220;5.160;2022-10-16T14:02:30;101378.66;;;17.07;61.73
68230;BME280;55048;52.220;5.160;2022-10-16T14:04:57;101526.16;;;18.07;61.69
68230;BME280;55048;52.220;5.160;2022-10-16T14:07:29;101333.72;;;16.82;61.61
68230;BME280;55048;52.220;5.160;2022-10-16T14:10:01;101469.88;;;17.70;61.94
68230;BME280;55048;52.220;5.160;2022-10-16T14:12:27;101403.97;;;17.27;61.86
68230;BME280;55048;52.220;5.160;2022-10-16T14:14:54;101519.16;;;17.96;61.88
68230;BME280;55048;52.220;5.160;2022-10-16T14:17:37;101424.38;;;17.28;61.86
68230;BME280;55048;52.220;5.160;2022-10-16T14:20:14;101480.66;;;17.75;62.16
68230;BME280;55048;52.220;5.160;2022-10-16T14:22:42;101529.63;;;18.13;62.03
68230;BME280;55048;52.220;5.160;2022-10-16T14:25:26;101476.06;;;17.76;61.64
68230;BME280;55048;52.220;5.160;2022-10-16T14:30:56;101521.03;;;18.11;62.32
68230;BME280;55048;52.220;5.160;2022-10-16T14:33:32;101428.44;;;17.51;62.24
68230;BME280;55048;52.220;5.160;2022-10-16T14:36:02;101535.81;;;18.14;62.44
68230;BME280;55048;52.220;5.160;2022-10-16T14:38:28;101486.84;;;17.81;62.38
68230;BME280;55048;52.220;5.160;2022-10-16T14:40:57;101487.94;;;17.80;62.77
68230;BME280;55048;52.220;5.160;2022-10-16T14:43:37;101540.13;;;18.04;61.85
68230;BME280;55048;52.220;5.160;2022-10-16T14:46:12;101551.44;;;18.01;62.32
68230;BME280;55048;52.220;5.160;2022-10-16T14:48:43;101474.44;;;17.54;62.74
68230;BME280;55048;52.220;5.160;2022-10-16T14:51:19;101515.38;;;17.77;62.35